sensor_id;sensor_type;location;lat;lon;timestamp;temperature;humidity
4107;DHT22;21906;50.812;7.132;2023-11-21T00:01:19;11.20;82.30
4107;DHT22;21906;50.812;7.132;2023-11-21T00:03:44;11.20;82.30
4107;DHT22;21906;50.812;7.132;2023-11-21T00:06:10;11.20;82.40
4107;DHT22;21906;50.812;7.132;2023-11-21T00:08:36;11.20;82.60
4107;DHT22;21906;50.812;7.132;2023-11-21T00:11:02;11.20;82.50
4107;DHT22;21906;50.812;7.132;2023-11-21T00:13:33;11.20;82.60
4107;DHT22;21906;50.812;7.132;2023-11-21T00:15:59;11.20;82.40
4107;DHT22;21906;50.812;7.132;2023-11-21T00:18:25;11.10;82.60
4107;DHT22;21906;50.812;7.132;2023-11-21T00:20:50;11.20;82.60
4107;DHT22;21906;50.812;7.132;2023-11-21T00:23:16;11.10;82.60
4107;DHT22;21906;50.812;7.132;2023-11-21T00:25:42;11.10;82.40
4107;DHT22;21906;50.812;7.132;2023-11-21T00:28:08;11.20;82.50
4107;DHT22;21906;50.812;7.132;2023-11-21T00:30:33;11.10;82.60
4107;DHT22;21906;50.812;7.132;2023-11-21T00:32:59;11.10;82.70
4107;DHT22;21906;50.812;7.132;2023-11-21T00:35:25;11.00;82.70
4107;DHT22;21906;50.812;7.132;2023-11-21T00:37:52;11.00;82.70
4107;DHT22;21906;50.812;7.132;2023-11-21T00:40:17;11.00;82.50
4107;DHT22;21906;50.812;7.132;2023-11-21T00:42:46;11.00;82.60
4107;DHT22;21906;50.812;7.132;2023-11-21T00:45:13;11.00;82.50
4107;DHT22;21906;50.812;7.132;2023-11-21T00:47:38;11.00;82.60
4107;DHT22;21906;50.812;7.132;2023-11-21T00:50:05;11.00;82.40
4107;DHT22;21906;50.812;7.132;2023-11-21T00:52:32;11.10;82.40
4107;DHT22;21906;50.812;7.132;2023-11-21T00:54:57;11.00;82.20
4107;DHT22;21906;50.812;7.132;2023-11-21T00:57:26;11.00;82.00
4107;DHT22;21906;50.812;7.132;2023-11-21T00:59:52;11.00;82.10
4107;DHT22;21906;50.812;7.132;2023-11-21T01:02:18;11.00;82.10
4107;DHT22;21906;50.812;7.132;2023-11-21T01:04:43;11.00;82.00
4107;DHT22;21906;50.812;7.132;2023-11-21T01:07:09;11.00;82.10
4107;DHT22;21906;50.812;7.132;2023-11-21T01:09:35;11.10;82.00
4107;DHT22;21906;50.812;7.132;2023-11-21T01:12:00;11.00;81.80
4107;DHT22;21906;50.812;7.132;2023-11-21T01:14:26;11.00;81.80
4107;DHT22;21906;50.812;7.132;2023-11-21T01:16:53;11.00;82.00
4107;DHT22;21906;50.812;7.132;2023-11-21T01:19:18;11.00;81.90
4107;DHT22;21906;50.812;7.132;2023-11-21T01:21:44;11.00;82.00
4107;DHT22;21906;50.812;7.132;2023-11-21T01:24:09;11.00;81.90
4107;DHT22;21906;50.812;7.132;2023-11-21T01:26:35;11.00;81.80
4107;DHT22;21906;50.812;7.132;2023-11-21T01:29:01;11.00;81.80
4107;DHT22;21906;50.812;7.132;2023-11-21T01:31:26;11.00;82.00
4107;DHT22;21906;50.812;7.132;2023-11-21T01:33:55;11.00;82.10
4107;DHT22;21906;50.812;7.132;2023-11-21T01:36:21;10.90;82.00
4107;DHT22;21906;50.812;7.132;2023-11-21T01:38:47;10.90;82.10
4107;DHT22;21906;50.812;7.132;2023-11-21T01:41:14;10.90;82.30
4107;DHT22;21906;50.812;7.132;2023-11-21T01:43:40;10.90;82.30
4107;DHT22;21906;50.812;7.132;2023-11-21T01:46:06;11.00;82.00
4107;DHT22;21906;50.812;7.132;2023-11-21T01:48:33;10.90;82.10
4107;DHT22;21906;50.812;7.132;2023-11-21T01:50:59;10.90;82.10
4107;DHT22;21906;50.812;7.132;2023-11-21T01:53:25;11.00;82.00
4107;DHT22;21906;50.812;7.132;2023-11-21T01:55:51;10.90;81.90
4107;DHT22;21906;50.812;7.132;2023-11-21T01:58:19;10.90;82.10
4107;DHT22;21906;50.812;7.132;2023-11-21T02:00:45;10.90;82.10
4107;DHT22;21906;50.812;7.132;2023-11-21T02:03:11;10.90;82.20
4107;DHT22;21906;50.812;7.132;2023-11-21T02:05:37;10.90;82.10
4107;DHT22;21906;50.812;7.132;2023-11-21T02:08:03;10.90;81.90
4107;DHT22;21906;50.812;7.132;2023-11-21T02:10:30;10.80;82.30
4107;DHT22;21906;50.812;7.132;2023-11-21T02:12:56;10.70;82.60
4107;DHT22;21906;50.812;7.132;2023-11-21T02:15:23;10.70;82.80
4107;DHT22;21906;50.812;7.132;2023-11-21T02:17:52;10.70;82.70
4107;DHT22;21906;50.812;7.132;2023-11-21T02:20:22;10.70;82.50
4107;DHT22;21906;50.812;7.132;2023-11-21T02:25:15;10.70;82.60
4107;DHT22;21906;50.812;7.132;2023-11-21T02:27:41;10.80;82.50
4107;DHT22;21906;50.812;7.132;2023-11-21T02:30:08;10.90;82.40
4107;DHT22;21906;50.812;7.132;2023-11-21T02:32:37;10.80;82.10
4107;DHT22;21906;50.812;7.132;2023-11-21T02:35:04;10.90;82.10
4107;DHT22;21906;50.812;7.132;2023-11-21T02:37:33;10.90;82.10
4107;DHT22;21906;50.812;7.132;2023-11-21T02:39:59;10.80;82.10
4107;DHT22;21906;50.812;7.132;2023-11-21T02:42:25;10.70;82.20
4107;DHT22;21906;50.812;7.132;2023-11-21T02:44:50;10.60;82.40
4107;DHT22;21906;50.812;7.132;2023-11-21T02:47:16;10.70;82.20
4107;DHT22;21906;50.812;7.132;2023-11-21T02:49:41;10.80;81.90
4107;DHT22;21906;50.812;7.132;2023-11-21T02:52:07;10.80;81.80
4107;DHT22;21906;50.812;7.132;2023-11-21T02:54:33;10.70;81.80
4107;DHT22;21906;50.812;7.132;2023-11-21T02:57:02;10.70;81.80
4107;DHT22;21906;50.812;7.132;2023-11-21T02:59:27;10.60;81.60
4107;DHT22;21906;50.812;7.132;2023-11-21T03:01:53;10.60;81.50
4107;DHT22;21906;50.812;7.132;2023-11-21T03:04:19;10.60;81.50
4107;DHT22;21906;50.812;7.132;2023-11-21T03:06:45;10.60;81.40
4107;DHT22;21906;50.812;7.132;2023-11-21T03:09:11;10.60;81.20
4107;DHT22;21906;50.812;7.132;2023-11-21T03:11:39;10.60;81.10
4107;DHT22;21906;50.812;7.132;2023-11-21T03:14:05;10.60;81.00
4107;DHT22;21906;50.812;7.132;2023-11-21T03:16:32;10.60;81.00
4107;DHT22;21906;50.812;7.132;2023-11-21T03:18:58;10.50;80.80
4107;DHT22;21906;50.812;7.132;2023-11-21T03:21:24;10.50;81.00
4107;DHT22;21906;50.812;7.132;2023-11-21T03:23:50;10.50;81.20
4107;DHT22;21906;50.812;7.132;2023-11-21T03:26:15;10.40;81.10
4107;DHT22;21906;50.812;7.132;2023-11-21T03:28:42;10.40;81.40
4107;DHT22;21906;50.812;7.132;2023-11-21T03:31:07;10.40;81.50
4107;DHT22;21906;50.812;7.132;2023-11-21T03:33:35;10.40;81.70
4107;DHT22;21906;50.812;7.132;2023-11-21T03:36:01;10.40;81.60
4107;DHT22;21906;50.812;7.132;2023-11-21T03:38:26;10.40;81.50
4107;DHT22;21906;50.812;7.132;2023-11-21T03:40:52;10.50;81.50
4107;DHT22;21906;50.812;7.132;2023-11-21T03:43:18;10.50;81.40
4107;DHT22;21906;50.812;7.132;2023-11-21T03:45:44;10.50;81.50
4107;DHT22;21906;50.812;7.132;2023-11-21T03:48:12;10.40;81.70
4107;DHT22;21906;50.812;7.132;2023-11-21T03:50:38;10.40;81.80
4107;DHT22;21906;50.812;7.132;2023-11-21T03:53:04;10.40;81.70
4107;DHT22;21906;50.812;7.132;2023-11-21T03:55:30;10.50;81.60
4107;DHT22;21906;50.812;7.132;2023-11-21T03:57:57;10.50;81.50
4107;DHT22;21906;50.812;7.132;2023-11-21T04:00:23;10.50;81.50
4107;DHT22;21906;50.812;7.132;2023-11-21T04:02:49;10.50;81.50
4107;DHT22;21906;50.812;7.132;2023-11-21T04:05:17;10.50;81.80
4107;DHT22;21906;50.812;7.132;2023-11-21T04:07:42;10.50;81.80
4107;DHT22;21906;50.812;7.132;2023-11-21T04:10:08;10.50;81.80
4107;DHT22;21906;50.812;7.132;2023-11-21T04:12:35;10.40;82.00
4107;DHT22;21906;50.812;7.132;2023-11-21T04:15:01;10.50;81.90
4107;DHT22;21906;50.812;7.132;2023-11-21T04:17:27;10.40;82.10
4107;DHT22;21906;50.812;7.132;2023-11-21T04:19:52;10.50;81.90
4107;DHT22;21906;50.812;7.132;2023-11-21T04:22:18;10.50;81.90
4107;DHT22;21906;50.812;7.132;2023-11-21T04:24:43;10.50;82.00
4107;DHT22;21906;50.812;7.132;2023-11-21T04:27:09;10.50;82.10
4107;DHT22;21906;50.812;7.132;2023-11-21T04:29:35;10.50;82.00
4107;DHT22;21906;50.812;7.132;2023-11-21T04:32:01;10.50;82.00
4107;DHT22;21906;50.812;7.132;2023-11-21T04:34:28;10.60;81.90
4107;DHT22;21906;50.812;7.132;2023-11-21T04:36:56;10.40;82.20
4107;DHT22;21906;50.812;7.132;2023-11-21T04:39:22;10.50;82.30
4107;DHT22;21906;50.812;7.132;2023-11-21T04:41:48;10.60;82.30
4107;DHT22;21906;50.812;7.132;2023-11-21T04:44:13;10.60;82.10
4107;DHT22;21906;50.812;7.132;2023-11-21T04:46:39;10.70;82.10
4107;DHT22;21906;50.812;7.132;2023-11-21T04:49:05;10.60;82.00
4107;DHT22;21906;50.812;7.132;2023-11-21T04:51:30;10.60;82.10
4107;DHT22;21906;50.812;7.132;2023-11-21T04:53:57;10.60;82.10
4107;DHT22;21906;50.812;7.132;2023-11-21T04:56:23;10.60;82.10
4107;DHT22;21906;50.812;7.132;2023-11-21T04:58:49;10.70;82.00
4107;DHT22;21906;50.812;7.132;2023-11-21T05:01:14;10.60;82.00
4107;DHT22;21906;50.812;7.132;2023-11-21T05:03:40;10.70;82.10
4107;DHT22;21906;50.812;7.132;2023-11-21T05:06:06;10.70;82.00
4107;DHT22;21906;50.812;7.132;2023-11-21T05:08:32;10.70;82.00
4107;DHT22;21906;50.812;7.132;2023-11-21T05:10:57;10.70;82.10
4107;DHT22;21906;50.812;7.132;2023-11-21T05:13:23;10.60;82.20
4107;DHT22;21906;50.812;7.132;2023-11-21T05:15:55;10.60;82.20
4107;DHT22;21906;50.812;7.132;2023-11-21T05:18:24;10.60;82.10
4107;DHT22;21906;50.812;7.132;2023-11-21T05:20:52;10.60;82.20
4107;DHT22;21906;50.812;7.132;2023-11-21T05:23:19;10.60;82.20
4107;DHT22;21906;50.812;7.132;2023-11-21T05:25:44;10.50;82.30
4107;DHT22;21906;50.812;7.132;2023-11-21T05:28:11;10.50;82.40
4107;DHT22;21906;50.812;7.132;2023-11-21T05:30:37;10.60;82.50
4107;DHT22;21906;50.812;7.132;2023-11-21T05:33:04;10.60;82.40
4107;DHT22;21906;50.812;7.132;2023-11-21T05:35:30;10.50;82.40
4107;DHT22;21906;50.812;7.132;2023-11-21T05:37:56;10.60;82.50
4107;DHT22;21906;50.812;7.132;2023-11-21T05:40:22;10.70;82.30
4107;DHT22;21906;50.812;7.132;2023-11-21T05:42:48;10.70;82.30
4107;DHT22;21906;50.812;7.132;2023-11-21T05:45:14;10.60;82.40
4107;DHT22;21906;50.812;7.132;2023-11-21T05:47:42;10.60;82.40
4107;DHT22;21906;50.812;7.132;2023-11-21T05:50:12;10.60;82.50
4107;DHT22;21906;50.812;7.132;2023-11-21T05:52:40;10.60;82.50
4107;DHT22;21906;50.812;7.132;2023-11-21T05:55:07;10.60;82.50
4107;DHT22;21906;50.812;7.132;2023-11-21T05:57:33;10.60;82.40
4107;DHT22;21906;50.812;7.132;2023-11-21T06:00:03;10.60;82.40
4107;DHT22;21906;50.812;7.132;2023-11-21T06:02:30;10.60;82.50
4107;DHT22;21906;50.812;7.132;2023-11-21T06:04:57;10.60;82.50
4107;DHT22;21906;50.812;7.132;2023-11-21T06:07:22;10.60;82.50
4107;DHT22;21906;50.812;7.132;2023-11-21T06:09:48;10.50;82.80
4107;DHT22;21906;50.812;7.132;2023-11-21T06:12:15;10.40;83.10
4107;DHT22;21906;50.812;7.132;2023-11-21T06:14:41;10.50;83.20
4107;DHT22;21906;50.812;7.132;2023-11-21T06:17:07;10.50;83.10
4107;DHT22;21906;50.812;7.132;2023-11-21T06:19:32;10.40;83.30
4107;DHT22;21906;50.812;7.132;2023-11-21T06:21:58;10.40;83.20
4107;DHT22;21906;50.812;7.132;2023-11-21T06:24:24;10.40;83.20
4107;DHT22;21906;50.812;7.132;2023-11-21T06:26:49;10.50;83.10
4107;DHT22;21906;50.812;7.132;2023-11-21T06:29:15;10.50;83.20
4107;DHT22;21906;50.812;7.132;2023-11-21T06:31:41;10.50;83.10
4107;DHT22;21906;50.812;7.132;2023-11-21T06:34:07;10.50;83.10
4107;DHT22;21906;50.812;7.132;2023-11-21T06:36:34;10.50;83.10
4107;DHT22;21906;50.812;7.132;2023-11-21T06:39:00;10.50;83.20
4107;DHT22;21906;50.812;7.132;2023-11-21T06:41:25;10.50;83.30
4107;DHT22;21906;50.812;7.132;2023-11-21T06:43:51;10.50;83.20
4107;DHT22;21906;50.812;7.132;2023-11-21T06:46:16;10.50;83.30
4107;DHT22;21906;50.812;7.132;2023-11-21T06:48:43;10.50;83.30
4107;DHT22;21906;50.812;7.132;2023-11-21T06:51:08;10.50;83.20
4107;DHT22;21906;50.812;7.132;2023-11-21T06:53:36;10.50;83.40
4107;DHT22;21906;50.812;7.132;2023-11-21T06:56:02;10.50;83.30
4107;DHT22;21906;50.812;7.132;2023-11-21T06:58:27;10.60;83.30
4107;DHT22;21906;50.812;7.132;2023-11-21T07:00:53;10.50;83.50
4107;DHT22;21906;50.812;7.132;2023-11-21T07:03:18;10.50;83.50
4107;DHT22;21906;50.812;7.132;2023-11-21T07:05:45;10.50;83.40
4107;DHT22;21906;50.812;7.132;2023-11-21T07:08:10;10.60;83.30
4107;DHT22;21906;50.812;7.132;2023-11-21T07:10:38;10.60;83.20
4107;DHT22;21906;50.812;7.132;2023-11-21T07:13:03;10.60;83.20
4107;DHT22;21906;50.812;7.132;2023-11-21T07:15:29;10.70;83.20
4107;DHT22;21906;50.812;7.132;2023-11-21T07:17:55;10.70;83.30
4107;DHT22;21906;50.812;7.132;2023-11-21T07:20:20;10.70;83.20
4107;DHT22;21906;50.812;7.132;2023-11-21T07:22:47;10.60;83.00
4107;DHT22;21906;50.812;7.132;2023-11-21T07:25:12;10.70;83.20
4107;DHT22;21906;50.812;7.132;2023-11-21T07:27:38;10.60;83.30
4107;DHT22;21906;50.812;7.132;2023-11-21T07:30:04;10.70;83.30
4107;DHT22;21906;50.812;7.132;2023-11-21T07:32:32;10.70;83.20
4107;DHT22;21906;50.812;7.132;2023-11-21T07:34:57;10.70;83.40
4107;DHT22;21906;50.812;7.132;2023-11-21T07:37:25;10.70;83.30
4107;DHT22;21906;50.812;7.132;2023-11-21T07:39:54;10.60;83.10
4107;DHT22;21906;50.812;7.132;2023-11-21T07:42:23;10.50;83.20
4107;DHT22;21906;50.812;7.132;2023-11-21T07:44:49;10.60;83.30
4107;DHT22;21906;50.812;7.132;2023-11-21T07:47:15;10.60;83.40
4107;DHT22;21906;50.812;7.132;2023-11-21T07:49:41;10.60;83.60
4107;DHT22;21906;50.812;7.132;2023-11-21T07:52:09;10.70;83.60
4107;DHT22;21906;50.812;7.132;2023-11-21T07:54:35;10.70;83.40
4107;DHT22;21906;50.812;7.132;2023-11-21T07:57:01;10.70;83.40
4107;DHT22;21906;50.812;7.132;2023-11-21T07:59:27;10.80;83.20
4107;DHT22;21906;50.812;7.132;2023-11-21T08:01:52;10.80;83.00
4107;DHT22;21906;50.812;7.132;2023-11-21T08:04:18;10.90;83.10
4107;DHT22;21906;50.812;7.132;2023-11-21T08:06:44;10.90;82.90
4107;DHT22;21906;50.812;7.132;2023-11-21T08:09:09;10.90;82.80
4107;DHT22;21906;50.812;7.132;2023-11-21T08:11:37;10.90;82.40
4107;DHT22;21906;50.812;7.132;2023-11-21T08:14:04;10.90;82.50
4107;DHT22;21906;50.812;7.132;2023-11-21T08:16:30;11.00;82.10
4107;DHT22;21906;50.812;7.132;2023-11-21T08:18:56;11.00;82.20
4107;DHT22;21906;50.812;7.132;2023-11-21T08:21:22;11.00;82.30
4107;DHT22;21906;50.812;7.132;2023-11-21T08:23:50;11.10;82.10
4107;DHT22;21906;50.812;7.132;2023-11-21T08:26:19;11.10;82.10
4107;DHT22;21906;50.812;7.132;2023-11-21T08:28:45;11.20;82.00
4107;DHT22;21906;50.812;7.132;2023-11-21T08:31:12;11.30;81.50
4107;DHT22;21906;50.812;7.132;2023-11-21T08:33:38;11.20;81.40
4107;DHT22;21906;50.812;7.132;2023-11-21T08:36:08;11.20;81.60
4107;DHT22;21906;50.812;7.132;2023-11-21T08:38:35;11.20;81.60
4107;DHT22;21906;50.812;7.132;2023-11-21T08:41:07;11.20;81.70
4107;DHT22;21906;50.812;7.132;2023-11-21T08:43:36;11.40;81.50
4107;DHT22;21906;50.812;7.132;2023-11-21T08:46:05;11.40;81.60
4107;DHT22;21906;50.812;7.132;2023-11-21T08:48:31;11.40;81.70
4107;DHT22;21906;50.812;7.132;2023-11-21T08:50:57;11.40;81.80
4107;DHT22;21906;50.812;7.132;2023-11-21T08:53:23;11.40;81.60
4107;DHT22;21906;50.812;7.132;2023-11-21T08:55:48;11.40;81.60
4107;DHT22;21906;50.812;7.132;2023-11-21T08:58:15;11.40;81.70
4107;DHT22;21906;50.812;7.132;2023-11-21T09:00:41;11.40;81.90
4107;DHT22;21906;50.812;7.132;2023-11-21T09:03:07;11.40;81.60
4107;DHT22;21906;50.812;7.132;2023-11-21T09:05:38;11.50;81.50
4107;DHT22;21906;50.812;7.132;2023-11-21T09:08:05;11.60;81.70
4107;DHT22;21906;50.812;7.132;2023-11-21T09:10:31;11.50;81.20
4107;DHT22;21906;50.812;7.132;2023-11-21T09:12:57;11.50;80.90
4107;DHT22;21906;50.812;7.132;2023-11-21T09:15:24;11.50;80.80
4107;DHT22;21906;50.812;7.132;2023-11-21T09:17:50;11.40;81.30
4107;DHT22;21906;50.812;7.132;2023-11-21T09:20:16;11.40;81.50
4107;DHT22;21906;50.812;7.132;2023-11-21T09:22:42;11.50;81.40
4107;DHT22;21906;50.812;7.132;2023-11-21T09:25:10;11.50;81.40
4107;DHT22;21906;50.812;7.132;2023-11-21T09:27:36;11.50;81.30
4107;DHT22;21906;50.812;7.132;2023-11-21T09:30:02;11.50;81.60
4107;DHT22;21906;50.812;7.132;2023-11-21T09:32:31;11.60;81.20
4107;DHT22;21906;50.812;7.132;2023-11-21T09:34:56;11.60;80.90
4107;DHT22;21906;50.812;7.132;2023-11-21T09:37:24;11.60;80.90
4107;DHT22;21906;50.812;7.132;2023-11-21T09:39:50;11.60;81.20
4107;DHT22;21906;50.812;7.132;2023-11-21T09:42:23;11.60;80.70
4107;DHT22;21906;50.812;7.132;2023-11-21T09:44:58;11.60;81.00
4107;DHT22;21906;50.812;7.132;2023-11-21T09:47:29;11.60;80.60
4107;DHT22;21906;50.812;7.132;2023-11-21T09:49:56;11.60;80.50
4107;DHT22;21906;50.812;7.132;2023-11-21T09:52:26;11.60;80.50
4107;DHT22;21906;50.812;7.132;2023-11-21T09:54:53;11.70;80.30
4107;DHT22;21906;50.812;7.132;2023-11-21T09:57:23;11.70;80.10
4107;DHT22;21906;50.812;7.132;2023-11-21T09:59:51;11.60;80.50
4107;DHT22;21906;50.812;7.132;2023-11-21T10:02:29;11.60;80.50
4107;DHT22;21906;50.812;7.132;2023-11-21T10:04:56;11.50;80.40
4107;DHT22;21906;50.812;7.132;2023-11-21T10:07:22;11.50;80.60
4107;DHT22;21906;50.812;7.132;2023-11-21T10:09:51;11.60;80.80
4107;DHT22;21906;50.812;7.132;2023-11-21T10:12:17;11.60;80.70
4107;DHT22;21906;50.812;7.132;2023-11-21T10:14:47;11.70;80.70
4107;DHT22;21906;50.812;7.132;2023-11-21T10:17:14;11.80;80.40
4107;DHT22;21906;50.812;7.132;2023-11-21T10:19:51;11.80;80.30
4107;DHT22;21906;50.812;7.132;2023-11-21T10:22:20;11.70;80.10
4107;DHT22;21906;50.812;7.132;2023-11-21T10:24:46;11.70;80.40
4107;DHT22;21906;50.812;7.132;2023-11-21T10:27:11;11.70;80.50
4107;DHT22;21906;50.812;7.132;2023-11-21T10:29:39;11.70;80.40
4107;DHT22;21906;50.812;7.132;2023-11-21T10:32:05;11.70;80.70
4107;DHT22;21906;50.812;7.132;2023-11-21T10:34:31;11.80;80.80
4107;DHT22;21906;50.812;7.132;2023-11-21T10:36:58;11.90;80.90
4107;DHT22;21906;50.812;7.132;2023-11-21T10:39:24;11.80;80.60
4107;DHT22;21906;50.812;7.132;2023-11-21T10:41:54;11.90;80.60
4107;DHT22;21906;50.812;7.132;2023-11-21T10:44:20;11.80;80.20
4107;DHT22;21906;50.812;7.132;2023-11-21T10:46:53;11.70;80.50
4107;DHT22;21906;50.812;7.132;2023-11-21T10:49:25;11.70;81.00
4107;DHT22;21906;50.812;7.132;2023-11-21T10:51:53;11.90;80.80
4107;DHT22;21906;50.812;7.132;2023-11-21T10:54:20;11.90;80.70
4107;DHT22;21906;50.812;7.132;2023-11-21T10:56:48;12.00;80.70
4107;DHT22;21906;50.812;7.132;2023-11-21T10:59:16;12.10;80.40
4107;DHT22;21906;50.812;7.132;2023-11-21T11:01:45;11.90;79.90
4107;DHT22;21906;50.812;7.132;2023-11-21T11:04:12;11.90;80.50
4107;DHT22;21906;50.812;7.132;2023-11-21T11:06:43;11.90;80.70
4107;DHT22;21906;50.812;7.132;2023-11-21T11:09:12;12.00;80.20
4107;DHT22;21906;50.812;7.132;2023-11-21T11:11:41;12.00;80.70
4107;DHT22;21906;50.812;7.132;2023-11-21T11:14:13;11.90;80.60
4107;DHT22;21906;50.812;7.132;2023-11-21T11:16:40;12.00;80.50
4107;DHT22;21906;50.812;7.132;2023-11-21T11:19:11;12.00;79.90
4107;DHT22;21906;50.812;7.132;2023-11-21T11:22:03;12.00;80.10
4107;DHT22;21906;50.812;7.132;2023-11-21T11:25:13;12.00;80.10
4107;DHT22;21906;50.812;7.132;2023-11-21T11:38:34;12.00;80.30
4107;DHT22;21906;50.812;7.132;2023-11-21T11:41:04;12.00;80.10
4107;DHT22;21906;50.812;7.132;2023-11-21T11:43:31;12.00;79.20
4107;DHT22;21906;50.812;7.132;2023-11-21T11:46:10;11.90;79.30
4107;DHT22;21906;50.812;7.132;2023-11-21T11:48:39;12.00;79.80
4107;DHT22;21906;50.812;7.132;2023-11-21T11:51:12;11.90;79.90
4107;DHT22;21906;50.812;7.132;2023-11-21T11:53:47;11.90;79.40
4107;DHT22;21906;50.812;7.132;2023-11-21T11:58:44;11.90;80.00
4107;DHT22;21906;50.812;7.132;2023-11-21T12:01:12;11.90;79.40
4107;DHT22;21906;50.812;7.132;2023-11-21T12:03:38;11.90;80.00
4107;DHT22;21906;50.812;7.132;2023-11-21T12:06:05;11.90;79.90
4107;DHT22;21906;50.812;7.132;2023-11-21T12:08:32;11.90;80.00
4107;DHT22;21906;50.812;7.132;2023-11-21T12:10:58;11.90;79.80
4107;DHT22;21906;50.812;7.132;2023-11-21T12:13:24;11.90;80.10
4107;DHT22;21906;50.812;7.132;2023-11-21T12:15:50;11.90;79.60
4107;DHT22;21906;50.812;7.132;2023-11-21T12:18:16;11.80;79.50
4107;DHT22;21906;50.812;7.132;2023-11-21T12:20:42;11.90;79.80
4107;DHT22;21906;50.812;7.132;2023-11-21T12:23:08;11.90;79.90
4107;DHT22;21906;50.812;7.132;2023-11-21T12:25:40;11.90;79.50
4107;DHT22;21906;50.812;7.132;2023-11-21T12:28:07;11.90;79.70
4107;DHT22;21906;50.812;7.132;2023-11-21T12:30:34;11.80;79.80
4107;DHT22;21906;50.812;7.132;2023-11-21T12:33:03;11.90;79.90
4107;DHT22;21906;50.812;7.132;2023-11-21T12:35:34;11.80;80.00
4107;DHT22;21906;50.812;7.132;2023-11-21T12:38:02;11.80;80.00
4107;DHT22;21906;50.812;7.132;2023-11-21T12:40:30;11.80;79.90
4107;DHT22;21906;50.812;7.132;2023-11-21T12:42:58;11.80;79.60
4107;DHT22;21906;50.812;7.132;2023-11-21T12:45:25;11.90;79.80
4107;DHT22;21906;50.812;7.132;2023-11-21T12:47:56;12.00;79.40
4107;DHT22;21906;50.812;7.132;2023-11-21T12:50:28;12.00;79.30
4107;DHT22;21906;50.812;7.132;2023-11-21T12:53:03;11.90;79.60
4107;DHT22;21906;50.812;7.132;2023-11-21T12:55:31;11.90;80.00
4107;DHT22;21906;50.812;7.132;2023-11-21T12:57:59;11.90;80.10
4107;DHT22;21906;50.812;7.132;2023-11-21T13:00:34;11.90;79.60
4107;DHT22;21906;50.812;7.132;2023-11-21T13:03:04;11.90;79.20
4107;DHT22;21906;50.812;7.132;2023-11-21T13:05:37;12.00;79.10
4107;DHT22;21906;50.812;7.132;2023-11-21T13:08:13;11.90;79.10
4107;DHT22;21906;50.812;7.132;2023-11-21T13:10:44;12.00;79.00
4107;DHT22;21906;50.812;7.132;2023-11-21T13:13:13;12.00;79.20
4107;DHT22;21906;50.812;7.132;2023-11-21T13:15:49;12.00;79.00
4107;DHT22;21906;50.812;7.132;2023-11-21T13:18:16;12.00;79.10
4107;DHT22;21906;50.812;7.132;2023-11-21T13:20:43;12.20;78.90
4107;DHT22;21906;50.812;7.132;2023-11-21T13:23:10;12.20;78.70
4107;DHT22;21906;50.812;7.132;2023-11-21T13:25:42;12.10;78.70
4107;DHT22;21906;50.812;7.132;2023-11-21T13:28:08;12.10;78.90
4107;DHT22;21906;50.812;7.132;2023-11-21T13:30:37;12.20;78.90
4107;DHT22;21906;50.812;7.132;2023-11-21T13:33:06;12.10;79.00
4107;DHT22;21906;50.812;7.132;2023-11-21T13:35:39;12.20;79.10
4107;DHT22;21906;50.812;7.132;2023-11-21T13:38:14;12.30;78.70
4107;DHT22;21906;50.812;7.132;2023-11-21T13:40:48;12.10;78.60
4107;DHT22;21906;50.812;7.132;2023-11-21T13:43:18;12.00;79.00
4107;DHT22;21906;50.812;7.132;2023-11-21T13:45:47;12.10;79.00
4107;DHT22;21906;50.812;7.132;2023-11-21T13:48:13;12.10;78.30
4107;DHT22;21906;50.812;7.132;2023-11-21T13:50:43;11.90;78.80
4107;DHT22;21906;50.812;7.132;2023-11-21T13:53:24;11.90;79.10
4107;DHT22;21906;50.812;7.132;2023-11-21T13:55:51;11.90;79.40
4107;DHT22;21906;50.812;7.132;2023-11-21T13:58:20;11.80;79.20
4107;DHT22;21906;50.812;7.132;2023-11-21T14:01:10;11.80;79.20
4107;DHT22;21906;50.812;7.132;2023-11-21T14:03:54;11.60;79.80
4107;DHT22;21906;50.812;7.132;2023-11-21T14:06:26;11.70;79.80
4107;DHT22;21906;50.812;7.132;2023-11-21T14:09:00;11.80;79.40
4107;DHT22;21906;50.812;7.132;2023-11-21T14:11:31;11.80;79.00
4107;DHT22;21906;50.812;7.132;2023-11-21T14:13:57;11.70;79.40
4107;DHT22;21906;50.812;7.132;2023-11-21T14:16:25;11.80;79.30
4107;DHT22;21906;50.812;7.132;2023-11-21T14:18:50;11.80;79.50
4107;DHT22;21906;50.812;7.132;2023-11-21T14:21:27;11.70;79.70
4107;DHT22;21906;50.812;7.132;2023-11-21T14:23:53;11.80;79.60
4107;DHT22;21906;50.812;7.132;2023-11-21T14:26:20;11.80;80.10
4107;DHT22;21906;50.812;7.132;2023-11-21T14:28:46;11.80;79.50
4107;DHT22;21906;50.812;7.132;2023-11-21T14:31:14;11.80;79.50
4107;DHT22;21906;50.812;7.132;2023-11-21T14:33:43;11.90;79.50
4107;DHT22;21906;50.812;7.132;2023-11-21T14:36:09;11.90;79.40
4107;DHT22;21906;50.812;7.132;2023-11-21T14:38:36;11.90;79.30
4107;DHT22;21906;50.812;7.132;2023-11-21T14:41:05;11.80;78.90
4107;DHT22;21906;50.812;7.132;2023-11-21T14:43:32;11.80;78.90
4107;DHT22;21906;50.812;7.132;2023-11-21T14:46:01;11.70;79.40
4107;DHT22;21906;50.812;7.132;2023-11-21T14:48:29;11.80;79.50
4107;DHT22;21906;50.812;7.132;2023-11-21T14:51:08;11.70;79.00
4107;DHT22;21906;50.812;7.132;2023-11-21T14:53:54;11.70;79.20
4107;DHT22;21906;50.812;7.132;2023-11-21T14:56:22;11.70;79.20
4107;DHT22;21906;50.812;7.132;2023-11-21T14:59:01;11.70;79.20
4107;DHT22;21906;50.812;7.132;2023-11-21T15:01:38;11.70;79.00
4107;DHT22;21906;50.812;7.132;2023-11-21T15:04:22;11.80;79.00
4107;DHT22;21906;50.812;7.132;2023-11-21T15:07:05;11.90;79.00
4107;DHT22;21906;50.812;7.132;2023-11-21T15:09:31;11.80;79.00
4107;DHT22;21906;50.812;7.132;2023-11-21T15:11:58;11.80;79.00
4107;DHT22;21906;50.812;7.132;2023-11-21T15:14:34;11.70;79.10
4107;DHT22;21906;50.812;7.132;2023-11-21T15:17:01;11.70;79.30
4107;DHT22;21906;50.812;7.132;2023-11-21T15:19:28;11.70;79.40
4107;DHT22;21906;50.812;7.132;2023-11-21T15:21:57;11.80;79.70
4107;DHT22;21906;50.812;7.132;2023-11-21T15:24:24;11.70;79.80
4107;DHT22;21906;50.812;7.132;2023-11-21T15:26:50;11.60;80.90
4107;DHT22;21906;50.812;7.132;2023-11-21T15:29:16;11.60;80.80
4107;DHT22;21906;50.812;7.132;2023-11-21T15:31:43;11.50;81.10
4107;DHT22;21906;50.812;7.132;2023-11-21T15:34:17;11.50;81.60
4107;DHT22;21906;50.812;7.132;2023-11-21T15:36:43;11.50;81.80
4107;DHT22;21906;50.812;7.132;2023-11-21T15:39:09;11.60;81.40
4107;DHT22;21906;50.812;7.132;2023-11-21T15:41:39;11.60;81.60
4107;DHT22;21906;50.812;7.132;2023-11-21T15:44:06;11.50;81.70
4107;DHT22;21906;50.812;7.132;2023-11-21T15:46:36;11.60;81.70
4107;DHT22;21906;50.812;7.132;2023-11-21T15:49:04;11.50;81.90
4107;DHT22;21906;50.812;7.132;2023-11-21T15:51:42;11.60;81.80
4107;DHT22;21906;50.812;7.132;2023-11-21T15:54:10;11.50;81.90
4107;DHT22;21906;50.812;7.132;2023-11-21T15:56:36;11.50;82.00
4107;DHT22;21906;50.812;7.132;2023-11-21T15:59:03;11.50;82.10
4107;DHT22;21906;50.812;7.132;2023-11-21T16:01:32;11.50;82.10
4107;DHT22;21906;50.812;7.132;2023-11-21T16:03:59;11.40;82.10